createdAt,value
2022-08-26T00:01:29.195Z,2.40
2022-08-26T00:04:21.402Z,2.20
2022-08-26T00:07:02.186Z,2.30
2022-08-26T00:09:21.439Z,2.50
2022-08-26T00:11:50.399Z,2.40
2022-08-26T00:14:07.203Z,2.90
2022-08-26T00:16:35.553Z,2.10
2022-08-26T00:19:03.271Z,2.30
2022-08-26T00:22:00.209Z,2.30
2022-08-26T00:24:20.334Z,2.20
2022-08-26T00:26:42.981Z,2.60
2022-08-26T00:29:29.821Z,2.40
2022-08-26T00:31:45.202Z,2.20
2022-08-26T00:33:56.305Z,2.20
2022-08-26T00:36:09.085Z,2.10
2022-08-26T00:38:37.823Z,2.10
2022-08-26T00:41:13.909Z,2.00
2022-08-26T00:43:31.844Z,2.00
2022-08-26T00:46:30.440Z,2.20
2022-08-26T00:49:19.661Z,2.10
2022-08-26T00:52:09.860Z,2.20
2022-08-26T00:54:47.967Z,2.10
2022-08-26T00:57:22.692Z,2.20
2022-08-26T01:00:05.831Z,2.10
2022-08-26T01:02:36.268Z,2.20
2022-08-26T01:05:06.098Z,2.00
2022-08-26T01:08:18.817Z,2.10
2022-08-26T01:10:39.990Z,1.90
2022-08-26T01:13:53.602Z,1.70
2022-08-26T01:16:34.344Z,2.10
2022-08-26T01:19:45.054Z,2.40
2022-08-26T01:22:17.473Z,1.60
2022-08-26T01:24:32.991Z,2.30
2022-08-26T01:26:46.011Z,2.30
2022-08-26T01:29:20.318Z,1.90
2022-08-26T01:31:50.135Z,2.00
2022-08-26T01:34:36.269Z,2.00
2022-08-26T01:36:59.928Z,1.90
2022-08-26T01:39:11.888Z,2.40
2022-08-26T01:41:27.567Z,2.10
2022-08-26T01:43:48.406Z,2.00
2022-08-26T01:46:19.541Z,2.00
2022-08-26T01:48:41.590Z,2.00
2022-08-26T01:53:30.999Z,2.00
2022-08-26T01:55:56.280Z,2.20
2022-08-26T01:58:20.115Z,2.10
2022-08-26T02:00:31.023Z,2.20
2022-08-26T02:02:47.184Z,2.10
2022-08-26T02:05:13.553Z,2.30
2022-08-26T02:07:33.387Z,2.00
2022-08-26T02:10:03.229Z,2.20
2022-08-26T02:12:12.144Z,2.10
2022-08-26T02:14:51.319Z,2.20
2022-08-26T02:17:11.715Z,1.80
2022-08-26T02:19:28.874Z,1.90
2022-08-26T02:21:41.965Z,2.10
2022-08-26T02:23:53.195Z,1.80
2022-08-26T02:26:16.285Z,2.20
2022-08-26T02:28:38.058Z,1.80
2022-08-26T02:30:50.082Z,2.20
2022-08-26T02:33:22.723Z,1.80
2022-08-26T02:35:40.762Z,1.70
2022-08-26T02:38:31.655Z,2.10
2022-08-26T02:40:48.225Z,1.80
2022-08-26T02:42:58.039Z,2.10
2022-08-26T02:45:36.920Z,2.00
2022-08-26T02:47:47.003Z,2.00
2022-08-26T02:49:56.612Z,1.60
2022-08-26T02:52:07.392Z,1.90
2022-08-26T02:54:15.079Z,1.60
2022-08-26T02:56:37.411Z,1.90
2022-08-26T02:59:03.955Z,1.30
2022-08-26T03:01:35.683Z,1.20
2022-08-26T03:03:45.185Z,1.30
2022-08-26T03:05:55.634Z,1.10
2022-08-26T03:08:07.317Z,1.20
2022-08-26T03:10:14.570Z,1.40
2022-08-26T03:12:51.018Z,1.60
2022-08-26T03:15:25.006Z,1.20
2022-08-26T03:17:46.847Z,1.40
2022-08-26T03:20:15.724Z,1.20
2022-08-26T03:22:24.193Z,1.60
2022-08-26T03:24:39.063Z,1.30
2022-08-26T03:27:09.151Z,1.20
2022-08-26T03:29:38.242Z,0.80
2022-08-26T03:31:59.302Z,1.20
2022-08-26T03:34:25.841Z,1.10
2022-08-26T03:36:41.698Z,1.10
2022-08-26T03:39:13.000Z,1.10
2022-08-26T03:41:25.941Z,0.90
2022-08-26T03:43:35.739Z,1.00
2022-08-26T03:45:48.898Z,0.80
2022-08-26T03:48:12.714Z,1.20
2022-08-26T03:50:24.385Z,1.00
2022-08-26T03:52:43.733Z,1.00
2022-08-26T03:54:51.467Z,0.80
2022-08-26T03:57:00.987Z,0.60
2022-08-26T03:59:11.532Z,0.60
2022-08-26T04:01:26.157Z,0.90
2022-08-26T04:03:52.102Z,1.10
2022-08-26T04:06:22.103Z,0.80
2022-08-26T04:08:35.300Z,0.70
2022-08-26T04:10:54.760Z,0.60
2022-08-26T04:13:04.365Z,0.80
2022-08-26T04:15:34.716Z,0.70
2022-08-26T04:18:13.748Z,0.90
2022-08-26T04:21:24.175Z,0.60
2022-08-26T04:23:47.784Z,0.60
2022-08-26T04:26:10.978Z,0.90
2022-08-26T04:28:38.144Z,0.80
2022-08-26T04:30:45.223Z,0.80
2022-08-26T04:32:58.540Z,0.90
2022-08-26T04:35:18.568Z,0.80
2022-08-26T04:38:02.300Z,1.30
2022-08-26T04:40:25.123Z,0.70
2022-08-26T04:43:22.920Z,0.90
2022-08-26T04:45:57.754Z,1.50
2022-08-26T04:48:12.616Z,1.40
2022-08-26T04:50:36.169Z,1.30
2022-08-26T04:52:48.579Z,1.20
2022-08-26T04:55:15.807Z,0.90
2022-08-26T04:57:35.266Z,0.90
2022-08-26T04:59:55.552Z,0.80
2022-08-26T05:02:35.817Z,0.90
2022-08-26T05:05:03.115Z,1.00
2022-08-26T05:07:21.765Z,0.60
2022-08-26T05:09:43.786Z,0.80
2022-08-26T05:12:56.207Z,0.70
2022-08-26T05:15:29.621Z,0.60
2022-08-26T05:17:36.076Z,0.70
2022-08-26T05:19:45.885Z,0.70
2022-08-26T05:21:55.582Z,0.70
2022-08-26T05:24:11.020Z,0.70
2022-08-26T05:27:11.813Z,0.50
2022-08-26T05:29:33.267Z,0.70
2022-08-26T05:32:13.217Z,0.90
2022-08-26T05:34:30.410Z,1.00
2022-08-26T05:36:53.349Z,0.70
2022-08-26T05:39:27.104Z,0.90
2022-08-26T05:42:17.265Z,0.80
2022-08-26T05:44:53.546Z,0.70
2022-08-26T05:47:31.528Z,1.70
2022-08-26T05:49:51.684Z,0.90
2022-08-26T05:52:09.295Z,0.80
2022-08-26T05:54:51.534Z,0.80
2022-08-26T05:57:03.875Z,0.90
2022-08-26T05:59:46.226Z,0.80
2022-08-26T06:02:25.162Z,1.00
2022-08-26T06:04:32.479Z,0.80
2022-08-26T06:07:01.078Z,0.90
2022-08-26T06:09:11.699Z,1.00
2022-08-26T06:11:22.013Z,0.90
2022-08-26T06:13:38.174Z,0.70
2022-08-26T06:15:56.401Z,0.70
2022-08-26T06:20:57.096Z,0.90
2022-08-26T06:23:38.591Z,0.80
2022-08-26T06:26:15.972Z,1.10
2022-08-26T06:28:22.402Z,1.20
2022-08-26T06:31:05.455Z,1.20
2022-08-26T06:33:16.176Z,0.90
2022-08-26T06:35:43.365Z,1.00
2022-08-26T06:38:01.197Z,0.80
2022-08-26T06:40:28.677Z,1.00
2022-08-26T06:43:01.763Z,1.00
2022-08-26T06:45:32.869Z,1.10
2022-08-26T06:48:05.004Z,0.90
2022-08-26T06:50:39.642Z,1.10
2022-08-26T06:55:16.624Z,1.20
2022-08-26T06:57:50.369Z,0.80
2022-08-26T07:00:11.058Z,1.10
2022-08-26T07:03:09.796Z,0.70
2022-08-26T07:05:24.707Z,0.70
2022-08-26T07:07:53.787Z,1.00
2022-08-26T07:10:11.425Z,1.00
2022-08-26T07:12:58.604Z,0.80
2022-08-26T07:16:03.197Z,0.80
2022-08-26T07:18:39.587Z,1.00
2022-08-26T07:21:14.459Z,0.70
2022-08-26T07:24:11.081Z,0.80
2022-08-26T07:26:23.816Z,0.80
2022-08-26T07:28:53.848Z,0.90
2022-08-26T07:31:00.684Z,1.20
2022-08-26T07:33:07.688Z,1.00
2022-08-26T07:35:35.362Z,1.10
2022-08-26T07:37:42.304Z,1.10
2022-08-26T07:39:56.693Z,0.90
2022-08-26T07:42:10.119Z,1.00
2022-08-26T07:44:22.595Z,1.00
2022-08-26T07:47:10.499Z,1.30
2022-08-26T07:50:52.567Z,0.90
2022-08-26T07:53:24.427Z,0.80
2022-08-26T07:55:47.776Z,0.80
2022-08-26T07:58:17.065Z,1.00
2022-08-26T08:00:57.422Z,0.70
2022-08-26T08:03:22.751Z,1.00
2022-08-26T08:05:33.900Z,0.90
2022-08-26T08:07:44.820Z,0.80
2022-08-26T08:10:11.427Z,1.20
2022-08-26T08:12:22.094Z,1.20
2022-08-26T08:14:38.948Z,1.10
2022-08-26T08:16:46.946Z,1.10
2022-08-26T08:21:21.276Z,0.90
2022-08-26T08:23:45.615Z,1.10
2022-08-26T08:26:16.910Z,1.10
2022-08-26T08:28:57.145Z,1.00
2022-08-26T08:31:08.000Z,0.80
2022-08-26T08:33:24.799Z,1.20
2022-08-26T08:35:47.751Z,1.10
2022-08-26T08:38:01.065Z,1.10
2022-08-26T08:40:17.432Z,1.10
2022-08-26T08:42:59.169Z,1.20
2022-08-26T08:45:43.182Z,1.10
2022-08-26T08:48:06.734Z,1.40
2022-08-26T08:50:39.257Z,1.10
2022-08-26T08:53:24.199Z,1.30
2022-08-26T08:55:46.257Z,1.10
2022-08-26T08:58:11.391Z,1.30
2022-08-26T09:00:59.093Z,1.10
2022-08-26T09:03:49.895Z,1.10
2022-08-26T09:06:24.184Z,1.20
2022-08-26T09:09:04.852Z,1.00
2022-08-26T09:12:04.235Z,1.20
2022-08-26T09:15:02.002Z,1.00
2022-08-26T09:17:20.395Z,1.10
2022-08-26T09:19:51.127Z,1.10
2022-08-26T09:22:05.791Z,1.00
2022-08-26T09:24:15.617Z,1.20
2022-08-26T09:27:00.408Z,1.00
2022-08-26T09:31:44.945Z,0.80
2022-08-26T09:34:49.644Z,1.00
2022-08-26T09:37:20.503Z,0.80
2022-08-26T09:40:01.924Z,1.00
2022-08-26T09:42:44.637Z,0.90
2022-08-26T09:45:33.852Z,1.00
2022-08-26T09:47:55.565Z,0.90
2022-08-26T09:50:46.833Z,1.00
2022-08-26T09:53:28.492Z,0.70
2022-08-26T09:58:20.404Z,0.70
2022-08-26T10:00:35.140Z,0.70
2022-08-26T10:03:12.692Z,0.70
2022-08-26T10:06:01.580Z,0.90
2022-08-26T10:08:30.494Z,0.80
2022-08-26T10:11:02.269Z,0.60
2022-08-26T10:13:17.453Z,0.70
2022-08-26T10:15:29.507Z,0.80
2022-08-26T10:17:51.589Z,0.60
2022-08-26T10:20:38.029Z,0.60
2022-08-26T10:23:08.996Z,1.50
2022-08-26T10:25:45.939Z,0.80
2022-08-26T10:28:37.365Z,0.70
2022-08-26T10:31:28.798Z,0.70
2022-08-26T10:33:40.397Z,0.70
2022-08-26T10:36:27.215Z,0.80
2022-08-26T10:38:40.515Z,0.70
2022-08-26T10:41:09.911Z,0.60
2022-08-26T10:43:37.347Z,0.70
2022-08-26T10:46:43.915Z,0.70
2022-08-26T10:49:18.790Z,0.90
2022-08-26T10:51:45.564Z,1.00
2022-08-26T10:55:03.365Z,0.80
2022-08-26T10:57:25.704Z,0.60
2022-08-26T11:00:23.961Z,0.60
2022-08-26T11:02:49.473Z,0.90
2022-08-26T11:05:08.138Z,0.70
2022-08-26T11:08:00.450Z,0.70
2022-08-26T11:10:45.377Z,0.80
2022-08-26T11:12:58.741Z,0.50
2022-08-26T11:15:25.996Z,0.70
2022-08-26T11:18:35.746Z,0.80
2022-08-26T11:21:06.170Z,0.70
2022-08-26T11:23:53.149Z,0.60
2022-08-26T11:26:36.265Z,0.70
2022-08-26T11:29:13.299Z,0.70
2022-08-26T11:31:31.882Z,0.80
2022-08-26T11:33:54.301Z,0.90
2022-08-26T11:36:14.391Z,0.90
2022-08-26T11:38:51.060Z,0.80
2022-08-26T11:41:42.435Z,1.10
2022-08-26T11:43:54.788Z,1.10
2022-08-26T11:46:36.760Z,0.90
2022-08-26T11:49:33.934Z,0.80
2022-08-26T11:52:33.042Z,0.60
2022-08-26T11:55:19.219Z,0.60
2022-08-26T11:58:07.678Z,0.60
2022-08-26T12:00:35.210Z,0.70
2022-08-26T12:03:15.627Z,0.70
2022-08-26T12:05:55.195Z,0.80
2022-08-26T12:08:10.473Z,0.60
2022-08-26T12:13:10.881Z,0.60
2022-08-26T12:15:48.354Z,0.50
2022-08-26T12:18:29.639Z,0.60
2022-08-26T12:21:08.837Z,0.80
2022-08-26T12:23:50.012Z,0.60
2022-08-26T12:26:15.261Z,0.70
2022-08-26T12:28:36.045Z,0.60
2022-08-26T12:31:05.445Z,0.60
2022-08-26T12:33:23.320Z,0.40
2022-08-26T12:35:49.390Z,0.60
2022-08-26T12:38:01.501Z,0.50
2022-08-26T12:40:29.316Z,0.60
2022-08-26T12:42:43.819Z,0.70
2022-08-26T12:45:54.109Z,0.70
2022-08-26T12:48:15.063Z,0.50
2022-08-26T12:50:39.860Z,0.70
2022-08-26T12:53:10.870Z,0.60
2022-08-26T12:55:41.300Z,0.60
2022-08-26T12:58:59.786Z,0.50
2022-08-26T13:01:40.307Z,0.90
2022-08-26T13:04:07.899Z,1.10
2022-08-26T13:06:33.789Z,0.70
2022-08-26T13:08:46.210Z,1.10
2022-08-26T13:11:19.749Z,0.70
2022-08-26T13:13:45.239Z,0.80
2022-08-26T13:16:32.701Z,0.70
2022-08-26T13:19:05.349Z,0.60
2022-08-26T13:21:20.602Z,0.80
2022-08-26T13:23:47.971Z,0.60
2022-08-26T13:26:05.092Z,0.80
2022-08-26T13:28:33.585Z,0.80
2022-08-26T13:30:58.159Z,0.50
2022-08-26T13:33:05.357Z,0.70
2022-08-26T13:36:00.875Z,0.80
2022-08-26T13:38:40.089Z,0.60
2022-08-26T13:41:29.322Z,0.80
2022-08-26T13:43:36.946Z,0.70
2022-08-26T13:46:01.296Z,0.80
2022-08-26T13:48:23.267Z,0.70
2022-08-26T13:50:34.151Z,0.70
2022-08-26T13:52:57.425Z,0.60
2022-08-26T13:55:41.659Z,0.80
2022-08-26T13:58:32.711Z,1.10
2022-08-26T14:00:45.445Z,0.90
2022-08-26T14:03:02.946Z,1.00
2022-08-26T14:05:30.501Z,0.90
2022-08-26T14:07:50.489Z,1.00
2022-08-26T14:10:11.095Z,0.90
2022-08-26T14:12:51.381Z,0.90
2022-08-26T14:15:02.579Z,0.80
2022-08-26T14:17:18.606Z,0.90
2022-08-26T14:19:25.214Z,0.80
2022-08-26T14:21:34.344Z,0.70
2022-08-26T14:24:00.700Z,0.80
2022-08-26T14:26:28.940Z,0.50
2022-08-26T14:28:47.027Z,0.60
2022-08-26T14:31:02.143Z,0.70
2022-08-26T14:33:20.845Z,0.60
2022-08-26T14:35:35.183Z,0.50
2022-08-26T14:38:03.014Z,0.50
2022-08-26T14:40:52.880Z,0.40
2022-08-26T14:43:11.726Z,0.40
2022-08-26T14:47:56.915Z,0.60
2022-08-26T14:50:03.984Z,0.40
2022-08-26T14:52:27.260Z,0.40
2022-08-26T14:55:01.549Z,0.50
2022-08-26T14:57:10.278Z,0.50
2022-08-26T14:59:30.039Z,0.40
2022-08-26T15:01:36.854Z,0.30
2022-08-26T15:03:43.950Z,0.40
2022-08-26T15:05:54.950Z,0.40
2022-08-26T15:08:11.194Z,0.60
2022-08-26T15:10:24.778Z,0.60
2022-08-26T15:12:32.367Z,0.40
2022-08-26T15:14:38.938Z,0.50
2022-08-26T15:16:58.063Z,0.40
2022-08-26T15:19:16.659Z,0.60
2022-08-26T15:21:27.663Z,0.30
2022-08-26T15:23:47.854Z,0.40
2022-08-26T15:26:04.938Z,0.70
2022-08-26T15:28:46.681Z,0.30
2022-08-26T15:30:56.790Z,0.40
2022-08-26T15:33:03.328Z,0.40
2022-08-26T15:35:12.887Z,0.40
2022-08-26T15:37:19.645Z,0.30
2022-08-26T15:39:48.491Z,0.30
2022-08-26T15:42:14.117Z,0.50
2022-08-26T15:44:24.705Z,0.40
2022-08-26T15:46:40.600Z,0.40
2022-08-26T15:48:50.540Z,0.30
2022-08-26T15:51:03.576Z,0.40
2022-08-26T15:53:19.695Z,0.40
2022-08-26T15:55:49.188Z,0.30
2022-08-26T15:57:56.762Z,0.40
2022-08-26T16:00:10.478Z,0.40
2022-08-26T16:02:31.788Z,0.30
2022-08-26T16:04:39.255Z,0.40
2022-08-26T16:07:11.042Z,0.30
2022-08-26T16:09:20.862Z,0.30
2022-08-26T16:11:42.030Z,0.30
2022-08-26T16:13:52.928Z,0.40
2022-08-26T16:16:32.703Z,0.30
2022-08-26T16:18:43.500Z,0.30
2022-08-26T16:21:10.279Z,0.30
2022-08-26T16:23:20.702Z,0.40
2022-08-26T16:25:52.753Z,0.30
2022-08-26T16:28:02.932Z,0.30
2022-08-26T16:30:38.239Z,0.40
2022-08-26T16:33:02.859Z,0.40
2022-08-26T16:35:09.747Z,0.40
2022-08-26T16:37:41.379Z,0.40
2022-08-26T16:39:47.521Z,0.40
2022-08-26T16:42:14.568Z,0.50
2022-08-26T16:44:24.888Z,0.30
2022-08-26T16:46:54.564Z,0.30
2022-08-26T16:49:08.384Z,0.40
2022-08-26T16:51:28.182Z,0.40
2022-08-26T16:53:37.942Z,0.40
2022-08-26T16:55:54.302Z,0.30
2022-08-26T16:58:03.980Z,0.40
2022-08-26T17:00:33.305Z,0.40
2022-08-26T17:02:41.141Z,0.30
2022-08-26T17:04:47.511Z,0.30
2022-08-26T17:06:57.676Z,0.20
2022-08-26T17:09:16.272Z,0.30
2022-08-26T17:12:04.151Z,0.50
2022-08-26T17:14:14.471Z,0.40
2022-08-26T17:16:54.715Z,0.40
2022-08-26T17:19:02.773Z,0.40
2022-08-26T17:21:14.509Z,0.30
2022-08-26T17:25:33.220Z,0.40
2022-08-26T17:27:39.650Z,0.30
2022-08-26T17:29:52.204Z,0.40
2022-08-26T17:32:19.152Z,0.50
2022-08-26T17:34:25.695Z,0.30
2022-08-26T17:36:43.805Z,0.70
2022-08-26T17:39:08.443Z,0.20
2022-08-26T17:43:27.983Z,0.30
2022-08-26T17:46:07.496Z,0.30
2022-08-26T17:48:49.777Z,0.30
2022-08-26T17:50:57.508Z,0.40
2022-08-26T17:53:04.203Z,0.30
2022-08-26T17:55:36.592Z,0.30
2022-08-26T17:57:56.132Z,0.30
2022-08-26T18:00:27.474Z,0.20
2022-08-26T18:02:34.261Z,0.30
2022-08-26T18:05:13.195Z,0.40
2022-08-26T18:07:20.774Z,0.30
2022-08-26T18:09:27.728Z,0.40
2022-08-26T18:11:44.242Z,0.30
2022-08-26T18:13:50.746Z,0.30
2022-08-26T18:16:21.888Z,0.30
2022-08-26T18:18:32.440Z,0.40
2022-08-26T18:20:43.735Z,0.30
2022-08-26T18:22:53.384Z,0.30
2022-08-26T18:25:03.125Z,0.30
2022-08-26T18:27:09.886Z,0.30
2022-08-26T18:29:19.234Z,0.30
2022-08-26T18:31:36.901Z,0.30
2022-08-26T18:33:57.431Z,0.30
2022-08-26T18:36:06.934Z,0.30
2022-08-26T18:38:23.528Z,0.30
2022-08-26T18:41:11.390Z,0.30
2022-08-26T18:45:26.751Z,0.40
2022-08-26T18:47:36.818Z,0.40
2022-08-26T18:50:17.943Z,0.30
2022-08-26T18:55:05.736Z,0.30
2022-08-26T18:57:36.081Z,0.30
2022-08-26T19:00:03.598Z,0.40
2022-08-26T19:02:14.308Z,0.30
2022-08-26T19:04:27.291Z,0.30
2022-08-26T19:07:04.156Z,0.50
2022-08-26T19:09:27.463Z,0.70
2022-08-26T19:11:42.819Z,0.90
2022-08-26T19:13:52.987Z,0.60
2022-08-26T19:16:05.990Z,0.50
2022-08-26T19:18:25.960Z,0.40
2022-08-26T19:20:44.721Z,0.50
2022-08-26T19:23:05.764Z,0.50
2022-08-26T19:25:26.446Z,0.60
2022-08-26T19:27:33.423Z,0.70
2022-08-26T19:29:40.114Z,0.60
2022-08-26T19:31:49.545Z,0.40
2022-08-26T19:34:08.164Z,0.50
2022-08-26T19:36:29.072Z,0.40
2022-08-26T19:38:36.437Z,0.50
2022-08-26T19:40:48.154Z,0.40
2022-08-26T19:42:55.404Z,0.20
2022-08-26T19:45:24.541Z,0.60
2022-08-26T19:47:32.449Z,0.40
2022-08-26T19:49:41.985Z,0.50
2022-08-26T19:52:09.634Z,0.40
2022-08-26T19:54:19.973Z,0.60
2022-08-26T19:56:51.031Z,0.40
2022-08-26T19:58:58.611Z,0.30
2022-08-26T20:01:15.457Z,0.40
2022-08-26T20:03:27.384Z,0.30
2022-08-26T20:05:33.970Z,0.40
2022-08-26T20:07:44.285Z,0.40
2022-08-26T20:09:54.054Z,0.40
2022-08-26T20:12:02.097Z,0.30
2022-08-26T20:14:18.228Z,0.30
2022-08-26T20:16:57.568Z,0.40
2022-08-26T20:19:22.524Z,0.30
2022-08-26T20:22:07.476Z,0.30
2022-08-26T20:24:20.595Z,0.30
2022-08-26T20:26:54.015Z,0.30
2022-08-26T20:29:47.244Z,0.30
2022-08-26T20:31:56.847Z,0.30
2022-08-26T20:34:43.735Z,0.30
2022-08-26T20:36:54.896Z,0.30
2022-08-26T20:39:22.467Z,0.30
2022-08-26T20:41:34.545Z,0.40
2022-08-26T20:43:42.537Z,0.30
2022-08-26T20:45:58.958Z,0.30
2022-08-26T20:48:45.914Z,0.40
2022-08-26T20:51:01.042Z,0.80
2022-08-26T20:53:10.061Z,0.40
2022-08-26T20:55:26.861Z,0.30
2022-08-26T20:57:40.885Z,0.40
2022-08-26T21:00:51.154Z,0.50
2022-08-26T21:03:28.042Z,0.40
2022-08-26T21:05:35.807Z,0.70
2022-08-26T21:08:20.089Z,0.20
2022-08-26T21:10:34.599Z,0.20
2022-08-26T21:12:46.532Z,0.20
2022-08-26T21:15:09.242Z,0.30
2022-08-26T21:17:19.228Z,0.30
2022-08-26T21:19:31.858Z,0.90
2022-08-26T21:21:38.630Z,0.20
2022-08-26T21:23:49.481Z,0.20
2022-08-26T21:26:13.992Z,0.40
2022-08-26T21:28:23.565Z,0.30
2022-08-26T21:30:35.325Z,0.30
2022-08-26T21:32:45.027Z,0.30
2022-08-26T21:35:01.613Z,0.30
2022-08-26T21:37:13.305Z,0.30
2022-08-26T21:39:27.025Z,0.30
2022-08-26T21:41:33.708Z,0.30
2022-08-26T21:44:03.174Z,0.30
2022-08-26T21:46:53.898Z,0.30
2022-08-26T21:49:11.216Z,0.30
2022-08-26T21:51:27.103Z,0.30
2022-08-26T21:53:45.237Z,0.40
2022-08-26T21:55:59.113Z,0.30
2022-08-26T21:58:26.354Z,0.20
2022-08-26T22:00:33.130Z,0.20
2022-08-26T22:02:52.301Z,0.20
2022-08-26T22:05:05.959Z,0.20
2022-08-26T22:07:32.890Z,0.40
2022-08-26T22:10:11.927Z,0.50
2022-08-26T22:12:24.864Z,0.30
2022-08-26T22:14:38.657Z,0.40
2022-08-26T22:16:51.607Z,0.40
2022-08-26T22:19:45.740Z,0.40
2022-08-26T22:22:22.552Z,0.30
2022-08-26T22:24:35.999Z,0.60
2022-08-26T22:27:06.199Z,0.20
2022-08-26T22:29:26.162Z,0.10
2022-08-26T22:31:54.791Z,0.20
2022-08-26T22:34:21.866Z,0.30
2022-08-26T22:36:59.263Z,0.20
2022-08-26T22:39:45.331Z,0.20
2022-08-26T22:42:11.695Z,0.20
2022-08-26T22:44:20.534Z,0.20
2022-08-26T22:46:38.665Z,0.30
2022-08-26T22:48:53.709Z,0.20
2022-08-26T22:51:03.379Z,0.10
2022-08-26T22:53:10.639Z,0.20
2022-08-26T22:55:44.478Z,0.20
2022-08-26T22:58:42.721Z,0.40
2022-08-26T23:00:51.041Z,0.30
2022-08-26T23:03:19.133Z,0.20
2022-08-26T23:05:33.078Z,0.40
2022-08-26T23:07:52.139Z,0.20
2022-08-26T23:10:29.329Z,0.20
2022-08-26T23:12:40.197Z,0.40
2022-08-26T23:15:25.650Z,0.30
2022-08-26T23:17:58.984Z,0.20
2022-08-26T23:20:29.621Z,0.20
2022-08-26T23:22:42.790Z,0.20
2022-08-26T23:25:06.787Z,0.20
2022-08-26T23:27:15.031Z,0.30
2022-08-26T23:29:25.773Z,0.10
2022-08-26T23:31:34.426Z,0.20
2022-08-26T23:34:51.002Z,0.30
2022-08-26T23:37:28.270Z,0.40
2022-08-26T23:39:37.276Z,0.30
2022-08-26T23:42:04.774Z,0.40
2022-08-26T23:44:32.212Z,0.30
2022-08-26T23:46:42.363Z,0.30
2022-08-26T23:48:56.444Z,0.20
2022-08-26T23:51:34.112Z,0.30
2022-08-26T23:53:44.466Z,0.30
2022-08-26T23:55:56.622Z,0.30
2022-08-26T23:58:10.215Z,0.30
